Time;durP1;ratioP1;P1;durP2;ratioP2;P2;SDS_P1;SDS_P2;PMS_P1;PMS_P2;Temp;Humidity;BMP_temperature;BMP_pressure;BME280_temperature;BME280_humidity;BME280_pressure;Samples;Min_cycle;Max_cycle;Signal;HPM_P1;HPM_P2
2021/08/25 00:09:04;;;;;;;;;;;;;;;14.34;77.88;101123.50;20578564;28;20042;-73
2021/08/25 00:19:06;;;;;;;15.52;10.50;;;;;;;14.00;79.14;101102.19;20579445;28;19922;-73
2021/08/25 00:29:08;;;;;;;15.32;10.25;;;;;;;14.04;78.81;101097.75;20578738;28;20659;-73
2021/08/25 00:39:10;;;;;;;15.38;9.75;;;;;;;13.97;79.08;101089.06;20577196;28;20054;-73
2021/08/25 00:49:13;;;;;;;15.50;10.48;;;;;;;13.77;80.08;101084.19;20577136;28;20493;-73
2021/08/25 00:59:17;;;;;;;15.15;10.18;;;;;;;13.79;79.96;101077.13;20579625;28;20456;-74
2021/08/25 01:09:19;;;;;;;14.63;11.07;;;;;;;13.52;81.17;101078.50;20592538;28;20390;-74
2021/08/25 01:19:21;;;;;;;14.90;10.63;;;;;;;13.04;83.81;101059.94;20591360;28;20055;-74
2021/08/25 01:29:30;;;;;;;15.80;10.65;;;;;;;12.79;84.84;101082.19;20591915;28;20102;-74
2021/08/25 01:39:32;;;;;;;15.90;9.95;;;;;;;12.78;84.69;101078.72;20573132;28;20573;-74
2021/08/25 01:49:34;;;;;;;17.27;11.48;;;;;;;12.71;84.54;101070.94;20590561;28;20113;-74
2021/08/25 01:59:36;;;;;;;18.30;10.32;;;;;;;12.65;85.02;101065.75;20590183;28;20062;-74
2021/08/25 02:09:38;;;;;;;13.73;10.15;;;;;;;12.61;85.04;101054.44;20570237;28;20039;-74
2021/08/25 02:19:40;;;;;;;14.52;9.75;;;;;;;12.46;85.72;101054.66;20587147;28;20101;-74
2021/08/25 02:29:41;;;;;;;16.95;10.40;;;;;;;12.39;86.25;101047.72;20586850;28;20179;-73
2021/08/25 02:39:43;;;;;;;16.00;10.43;;;;;;;12.29;86.54;101047.84;20585711;28;20050;-74
2021/08/25 02:49:45;;;;;;;16.90;10.82;;;;;;;12.33;86.47;101036.41;20569017;28;20046;-74
2021/08/25 02:59:47;;;;;;;15.55;10.65;;;;;;;12.15;86.97;101038.38;20584779;28;20082;-74
2021/08/25 03:09:49;;;;;;;16.15;10.57;;;;;;;12.12;86.99;101035.78;20582721;28;20051;-74
2021/08/25 03:19:51;;;;;;;18.63;11.57;;;;;;;12.09;86.65;101027.97;20584540;28;20046;-73
2021/08/25 03:29:52;;;;;;;15.75;10.32;;;;;;;11.94;87.02;101015.91;20607391;28;20055;-73
2021/08/25 03:39:55;;;;;;;19.33;11.57;;;;;;;11.79;88.22;101006.41;20597760;28;20579;-74
2021/08/25 03:49:56;;;;;;;17.40;12.23;;;;;;;11.78;87.58;101010.75;20581733;28;20464;-74
2021/08/25 03:59:58;;;;;;;18.35;11.57;;;;;;;11.65;88.44;100989.97;20582617;28;20105;-73
2021/08/25 04:10:00;;;;;;;17.52;12.35;;;;;;;11.57;88.62;100998.75;20578408;28;20043;-74
2021/08/25 04:20:02;;;;;;;18.77;12.65;;;;;;;11.52;88.58;100999.69;20579599;28;20098;-73
2021/08/25 04:30:05;;;;;;;22.42;13.32;;;;;;;11.54;89.00;100997.91;20577288;28;20556;-73
2021/08/25 04:40:07;;;;;;;20.73;12.73;;;;;;;11.49;88.98;101005.81;20576975;28;20051;-74
2021/08/25 04:50:09;;;;;;;19.67;11.98;;;;;;;11.52;88.99;101011.03;20576977;28;20055;-73
2021/08/25 05:00:11;;;;;;;21.55;12.68;;;;;;;11.61;88.31;101011.84;20576718;28;20051;-73
2021/08/25 05:10:13;;;;;;;18.88;11.90;;;;;;;11.66;88.64;101010.91;20573126;28;20046;-73
2021/08/25 05:20:15;;;;;;;20.15;13.18;;;;;;;11.74;87.86;101013.47;20576514;28;20465;-74
2021/08/25 05:30:17;;;;;;;20.73;12.45;;;;;;;11.89;87.87;101021.19;20574469;28;20051;-74
2021/08/25 05:40:19;;;;;;;19.40;12.75;;;;;;;12.18;86.86;101033.13;20575152;28;20109;-73
2021/08/25 05:50:21;;;;;;;20.83;13.00;;;;;;;12.31;86.30;101024.16;20582064;28;20051;-73
2021/08/25 06:00:22;;;;;;;19.95;12.20;;;;;;;12.43;86.24;101026.66;20587910;28;20054;-73
2021/08/25 06:10:24;;;;;;;22.40;13.27;;;;;;;12.74;85.05;101031.47;20586423;28;20460;-72
2021/08/25 06:20:28;;;;;;;16.90;11.75;;;;;;;12.88;85.06;101026.88;20585906;28;20051;-73
2021/08/25 06:30:30;;;;;;;15.75;11.48;;;;;;;13.19;83.80;101021.16;20585288;28;20425;-73
2021/08/25 06:40:32;;;;;;;15.68;11.15;;;;;;;13.55;82.13;101020.53;20584639;28;20073;-73
2021/08/25 06:50:34;;;;;;;15.10;10.65;;;;;;;13.84;81.36;101021.75;20584675;28;20051;-73
2021/08/25 07:00:36;;;;;;;17.88;10.82;;;;;;;14.16;80.63;101018.50;20582070;28;20046;-74
2021/08/25 07:10:38;;;;;;;16.50;10.88;;;;;;;14.32;79.43;101003.22;20581932;28;20047;-74
2021/08/25 07:20:40;;;;;;;14.77;10.13;;;;;;;14.63;77.81;101004.31;20583990;28;20058;-73
2021/08/25 07:30:42;;;;;;;14.63;9.10;;;;;;;15.10;76.83;100998.84;20582309;28;20051;-75
2021/08/25 07:40:44;;;;;;;11.45;8.18;;;;;;;15.52;75.31;100986.31;20581915;28;20078;-75
2021/08/25 07:50:49;;;;;;;14.80;8.32;;;;;;;15.81;73.28;100984.66;20580668;28;20412;-72
2021/08/25 08:00:51;;;;;;;11.57;7.88;;;;;;;15.91;73.58;100972.94;20580543;28;20097;-74
2021/08/25 08:10:53;;;;;;;11.18;7.70;;;;;;;16.20;73.21;100974.75;20586403;28;20051;-72
2021/08/25 08:20:54;;;;;;;11.05;7.50;;;;;;;16.33;72.48;100965.50;20606923;28;20190;-72
2021/08/25 08:30:56;;;;;;;13.40;7.95;;;;;;;16.60;71.98;100969.09;20586265;28;20747;-72
2021/08/25 08:40:58;;;;;;;11.00;6.88;;;;;;;16.87;71.04;100958.59;20577828;28;20046;-72
2021/08/25 08:51:01;;;;;;;12.40;7.47;;;;;;;17.33;69.90;100959.66;20577187;28;20057;-73
2021/08/25 09:01:03;;;;;;;12.68;7.10;;;;;;;17.50;68.64;100956.44;20577732;28;20113;-73
2021/08/25 09:11:09;;;;;;;10.07;6.30;;;;;;;18.15;66.70;100945.22;20576091;28;20051;-72
2021/08/25 09:21:28;;;;;;;;;;;;;;;18.41;63.55;100930.94;20579494;28;20043;-72
2021/08/25 09:31:30;;;;;;;8.82;5.22;;;;;;;18.85;62.40;100938.94;20590786;28;19922;-73
2021/08/25 09:41:32;;;;;;;9.65;5.03;;;;;;;18.92;62.55;100924.47;20591380;28;20456;-73
2021/08/25 09:51:38;;;;;;;10.95;5.95;;;;;;;19.28;60.75;100918.53;20589743;28;20106;-72
2021/08/25 10:01:42;;;;;;;8.68;5.60;;;;;;;19.23;61.07;100906.31;20588381;28;20105;-72
2021/08/25 10:12:00;;;;;;;8.55;5.07;;;;;;;19.60;59.21;100904.72;20587742;28;20101;-72
2021/08/25 10:22:14;;;;;;;9.35;5.15;;;;;;;20.09;57.21;100890.97;20571700;28;20408;-73
2021/08/25 10:32:15;;;;;;;8.45;5.25;;;;;;;19.92;57.87;100873.13;20585628;28;20051;-71
2021/08/25 10:42:46;;;;;;;7.45;4.68;;;;;;;20.19;55.88;100870.97;20586047;28;20134;-72
2021/08/25 10:52:48;;;;;;;9.32;4.88;;;;;;;20.46;52.40;100842.19;20584818;28;20501;-73
2021/08/25 11:02:51;;;;;;;8.07;4.18;;;;;;;20.88;49.34;100839.16;20582418;28;20062;-73
2021/08/25 11:12:53;;;;;;;8.98;4.47;;;;;;;21.02;50.73;100817.13;20567089;28;20051;-72
2021/08/25 11:22:55;;;;;;;8.88;4.20;;;;;;;21.31;46.22;100801.44;20584380;28;20051;-73
2021/08/25 11:33:10;;;;;;;9.63;4.28;;;;;;;21.56;44.06;100774.31;20580135;28;20417;-73
2021/08/25 11:43:21;;;;;;;8.32;3.90;;;;;;;21.42;43.57;100775.13;20580798;28;20103;-72
2021/08/25 11:53:29;;;;;;;9.25;3.78;;;;;;;21.56;43.81;100761.88;20580570;28;20540;-72
2021/08/25 12:03:39;;;;;;;9.57;4.15;;;;;;;21.54;41.77;100765.56;20579032;28;20051;-72
2021/08/25 12:13:44;;;;;;;8.32;3.90;;;;;;;21.63;41.20;100763.25;20578428;28;20109;-74
2021/08/25 12:24:01;;;;;;;7.18;3.65;;;;;;;21.59;40.51;100745.72;20579222;28;20051;-73
2021/08/25 12:34:07;;;;;;;8.20;3.88;;;;;;;21.65;39.44;100745.34;20578248;28;20050;-73
2021/08/25 12:44:10;;;;;;;7.22;3.60;;;;;;;21.74;40.04;100734.19;20578215;28;20681;-72
2021/08/25 12:54:12;;;;;;;9.85;3.90;;;;;;;21.85;40.25;100717.59;20577472;28;20070;-73
2021/08/25 13:04:14;;;;;;;8.63;3.75;;;;;;;21.86;40.77;100715.78;20603318;28;20079;-73
2021/08/25 13:14:16;;;;;;;8.07;3.97;;;;;;;21.74;39.10;100699.53;20596981;28;20105;-73
2021/08/25 13:24:18;;;;;;;7.97;4.05;;;;;;;22.04;39.46;100693.38;20592945;28;20117;-73
2021/08/25 13:34:20;;;;;;;7.97;3.78;;;;;;;21.65;38.97;100688.53;20591192;28;20054;-73
2021/08/25 13:44:22;;;;;;;13.23;6.05;;;;;;;21.89;42.31;100678.25;20593007;28;20050;-72
2021/08/25 13:54:24;;;;;;;8.32;4.10;;;;;;;22.26;40.38;100655.66;20589757;28;20563;-72
2021/08/25 14:04:25;;;;;;;10.30;4.20;;;;;;;22.36;39.75;100648.81;20587274;28;20501;-73
2021/08/25 14:14:30;;;;;;;8.45;3.83;;;;;;;22.46;39.67;100630.41;20585992;28;20564;-73
2021/08/25 14:24:32;;;;;;;11.63;4.85;;;;;;;22.16;40.92;100618.00;20584356;28;20050;-73
2021/08/25 14:34:34;;;;;;;8.00;4.05;;;;;;;22.01;40.48;100608.22;20506185;28;20055;-74
2021/08/25 14:44:36;;;;;;;7.88;4.00;;;;;;;21.98;40.81;100611.06;20508329;29;20070;-76
2021/08/25 14:54:37;;;;;;;7.20;3.80;;;;;;;21.64;42.70;100594.41;20506643;29;20098;-74
2021/08/25 15:04:39;;;;;;;8.68;4.07;;;;;;;22.01;42.65;100586.91;20505056;29;20043;-73
2021/08/25 15:14:41;;;;;;;11.73;3.97;;;;;;;22.09;41.13;100584.63;20505268;29;20058;-73
2021/08/25 15:24:43;;;;;;;8.60;4.40;;;;;;;22.25;41.82;100569.44;20504767;28;20118;-73
2021/08/25 15:34:45;;;;;;;7.85;4.22;;;;;;;22.07;42.37;100549.19;20502967;29;20090;-73
2021/08/25 15:44:46;;;;;;;8.38;4.28;;;;;;;22.10;41.29;100551.69;20503253;29;20106;-74
2021/08/25 15:54:49;;;;;;;7.60;4.47;;;;;;;22.02;44.08;100545.94;20501215;29;20107;-74
2021/08/25 16:04:51;;;;;;;9.65;4.50;;;;;;;22.02;42.71;100538.81;20483187;29;20047;-74
2021/08/25 16:14:52;;;;;;;7.47;3.95;;;;;;;22.06;41.88;100526.16;20538150;28;20054;-74
2021/08/25 16:24:53;;;;;;;10.63;4.28;;;;;;;22.00;43.32;100518.53;20579470;28;20370;-73
2021/08/25 16:34:55;;;;;;;14.88;8.52;;;;;;;22.08;41.78;100518.03;20577840;28;20058;-73
2021/08/25 16:44:57;;;;;;;13.18;5.03;;;;;;;22.07;42.77;100511.00;20577395;28;20481;-74
2021/08/25 16:54:59;;;;;;;7.63;4.45;;;;;;;22.09;41.13;100496.63;20560081;28;20078;-74
2021/08/25 17:05:02;;;;;;;10.57;4.70;;;;;;;21.98;42.79;100486.59;20576920;28;20436;-74
2021/08/25 17:15:06;;;;;;;9.43;4.05;;;;;;;21.91;42.53;100489.78;20576964;28;20490;-73
2021/08/25 17:25:08;;;;;;;9.83;4.73;;;;;;;21.78;44.08;100485.16;20577544;28;20058;-75
2021/08/25 17:35:12;;;;;;;9.07;4.47;;;;;;;21.04;50.78;100482.47;20558438;28;20460;-75
2021/08/25 17:45:14;;;;;;;8.52;4.40;;;;;;;20.52;52.85;100501.41;20607369;28;20078;-75
2021/08/25 17:55:18;;;;;;;8.82;4.82;;;;;;;20.22;52.27;100504.75;20606707;28;20050;-75
2021/08/25 18:05:20;;;;;;;8.10;4.17;;;;;;;20.00;52.88;100498.88;20588266;28;20047;-72
2021/08/25 18:15:22;;;;;;;8.57;4.38;;;;;;;19.48;55.61;100504.19;20581465;28;20046;-73
2021/08/25 18:25:23;;;;;;;29.60;12.85;;;;;;;19.03;58.80;100494.09;20586742;28;20109;-72
2021/08/25 18:35:26;;;;;;;9.23;4.78;;;;;;;18.68;59.43;100499.25;20581833;28;20055;-73
2021/08/25 18:45:27;;;;;;;8.43;5.03;;;;;;;18.25;61.26;100495.97;20584475;28;20054;-72
2021/08/25 18:55:29;;;;;;;9.57;4.85;;;;;;;18.02;61.83;100499.69;20583449;28;20109;-73
2021/08/25 19:05:31;;;;;;;9.95;4.80;;;;;;;17.76;62.75;100497.31;20583007;28;20051;-72
2021/08/25 19:15:33;;;;;;;7.47;4.40;;;;;;;17.43;64.79;100500.47;20584004;28;20054;-72
2021/08/25 19:25:35;;;;;;;8.88;4.57;;;;;;;17.26;65.16;100489.75;20582750;28;20055;-72
2021/08/25 19:35:36;;;;;;;9.38;4.32;;;;;;;17.08;65.54;100478.97;20580848;28;20116;-72
2021/08/25 19:45:38;;;;;;;12.45;5.25;;;;;;;16.97;66.80;100481.22;20581625;28;20105;-72
2021/08/25 19:55:39;;;;;;;9.55;4.80;;;;;;;16.93;67.12;100475.19;20580096;28;20074;-72
2021/08/25 20:05:41;;;;;;;11.05;5.15;;;;;;;16.83;67.69;100472.97;20578661;28;20047;-72
2021/08/25 20:15:43;;;;;;;10.30;5.40;;;;;;;16.74;67.89;100468.91;20579801;28;20047;-72
2021/08/25 20:25:45;;;;;;;9.35;5.20;;;;;;;16.64;69.51;100457.81;20582004;28;20133;-72
2021/08/25 20:35:47;;;;;;;11.70;5.22;;;;;;;16.71;67.23;100452.28;20585517;28;20046;-72
2021/08/25 20:45:49;;;;;;;10.45;5.30;;;;;;;16.78;67.42;100449.38;20598635;28;20804;-72
2021/08/25 20:55:51;;;;;;;12.20;5.10;;;;;;;16.83;66.71;100441.25;20579860;28;20061;-72
2021/08/25 21:05:53;;;;;;;10.55;5.53;;;;;;;16.72;67.62;100432.88;20575503;28;20105;-71
2021/08/25 21:15:55;;;;;;;11.07;5.90;;;;;;;16.66;67.48;100440.09;20576210;28;20120;-71
2021/08/25 21:25:58;;;;;;;9.13;5.15;;;;;;;16.64;69.05;100441.94;20591318;28;20094;-71
2021/08/25 21:35:59;;;;;;;9.55;5.22;;;;;;;16.65;68.96;100438.38;20589473;28;20062;-71
2021/08/25 21:46:02;;;;;;;8.77;5.18;;;;;;;16.66;70.25;100441.88;20590186;28;20051;-71
2021/08/25 21:56:04;;;;;;;11.23;6.07;;;;;;;16.58;70.84;100436.91;20588953;28;20105;-72
2021/08/25 22:06:06;;;;;;;10.13;6.25;;;;;;;16.42;71.66;100438.44;20589375;28;20607;-72
2021/08/25 22:16:07;;;;;;;10.75;5.60;;;;;;;16.24;72.83;100423.28;20605997;28;20074;-73
2021/08/25 22:26:11;;;;;;;9.88;5.85;;;;;;;16.15;73.42;100412.19;20605301;28;20054;-73
2021/08/25 22:36:13;;;;;;;10.83;5.90;;;;;;;15.94;73.96;100410.34;20585216;28;20117;-72
2021/08/25 22:46:15;;;;;;;10.88;6.40;;;;;;;15.71;74.78;100399.78;20583660;28;20054;-72
2021/08/25 22:56:17;;;;;;;12.52;6.25;;;;;;;15.51;75.94;100395.19;20579975;28;20046;-74
2021/08/25 23:06:19;;;;;;;11.73;6.82;;;;;;;15.22;77.11;100394.44;20544382;23;1505327;-73
2021/08/25 23:16:21;;;;;;;11.23;6.80;;;;;;;14.98;78.06;100392.66;20567425;28;20078;-72
2021/08/25 23:26:23;;;;;;;11.00;6.43;;;;;;;14.79;78.99;100384.50;20566636;28;20050;-72
2021/08/25 23:36:24;;;;;;;12.10;6.70;;;;;;;14.70;79.03;100374.25;20579971;28;20122;-73
2021/08/25 23:46:26;;;;;;;12.23;7.13;;;;;;;14.54;79.39;100363.38;20580524;28;20121;-73
2021/08/25 23:56:28;;;;;;;14.10;7.25;;;;;;;14.44;79.39;100341.69;20580503;28;20050;-73
